sensor_id;sensor_type;location;lat;lon;timestamp;temperature;humidity
41628;DHT22;27321;50.816;6.054;2022-12-07T00:00:39;6.80;79.90
41628;DHT22;27321;50.816;6.054;2022-12-07T00:03:41;6.80;79.40
41628;DHT22;27321;50.816;6.054;2022-12-07T00:06:45;6.80;79.60
41628;DHT22;27321;50.816;6.054;2022-12-07T00:09:47;6.80;79.60
41628;DHT22;27321;50.816;6.054;2022-12-07T00:12:48;6.80;79.20
41628;DHT22;27321;50.816;6.054;2022-12-07T00:15:50;6.80;79.60
41628;DHT22;27321;50.816;6.054;2022-12-07T00:18:51;6.70;79.60
41628;DHT22;27321;50.816;6.054;2022-12-07T00:21:52;6.70;79.70
41628;DHT22;27321;50.816;6.054;2022-12-07T00:24:53;6.70;80.00
41628;DHT22;27321;50.816;6.054;2022-12-07T00:27:54;6.70;79.70
41628;DHT22;27321;50.816;6.054;2022-12-07T00:31:04;6.70;80.00
41628;DHT22;27321;50.816;6.054;2022-12-07T00:34:16;6.80;80.10
41628;DHT22;27321;50.816;6.054;2022-12-07T00:37:18;6.80;79.80
41628;DHT22;27321;50.816;6.054;2022-12-07T00:40:19;6.80;80.00
41628;DHT22;27321;50.816;6.054;2022-12-07T00:43:20;6.80;79.40
41628;DHT22;27321;50.816;6.054;2022-12-07T00:46:22;6.70;80.10
41628;DHT22;27321;50.816;6.054;2022-12-07T00:49:24;6.60;80.10
41628;DHT22;27321;50.816;6.054;2022-12-07T00:52:25;6.70;79.90
41628;DHT22;27321;50.816;6.054;2022-12-07T00:55:26;6.70;80.10
41628;DHT22;27321;50.816;6.054;2022-12-07T00:58:27;6.80;80.10
41628;DHT22;27321;50.816;6.054;2022-12-07T01:01:31;6.80;79.70
41628;DHT22;27321;50.816;6.054;2022-12-07T01:04:34;6.70;80.10
41628;DHT22;27321;50.816;6.054;2022-12-07T01:07:37;6.70;79.80
41628;DHT22;27321;50.816;6.054;2022-12-07T01:10:39;6.70;79.60
41628;DHT22;27321;50.816;6.054;2022-12-07T01:13:40;6.70;79.90
41628;DHT22;27321;50.816;6.054;2022-12-07T01:16:41;6.70;79.80
41628;DHT22;27321;50.816;6.054;2022-12-07T01:19:42;6.60;80.10
41628;DHT22;27321;50.816;6.054;2022-12-07T01:22:44;6.70;80.00
41628;DHT22;27321;50.816;6.054;2022-12-07T01:25:44;6.60;80.10
41628;DHT22;27321;50.816;6.054;2022-12-07T01:28:46;6.60;80.50
41628;DHT22;27321;50.816;6.054;2022-12-07T01:31:48;6.60;80.10
41628;DHT22;27321;50.816;6.054;2022-12-07T01:34:50;6.60;80.70
41628;DHT22;27321;50.816;6.054;2022-12-07T01:37:51;6.60;80.30
41628;DHT22;27321;50.816;6.054;2022-12-07T01:40:56;6.50;80.70
41628;DHT22;27321;50.816;6.054;2022-12-07T01:44:14;6.60;80.30
41628;DHT22;27321;50.816;6.054;2022-12-07T01:47:15;6.60;80.70
41628;DHT22;27321;50.816;6.054;2022-12-07T01:50:19;6.60;80.50
41628;DHT22;27321;50.816;6.054;2022-12-07T01:53:21;6.60;80.70
41628;DHT22;27321;50.816;6.054;2022-12-07T01:56:27;6.60;80.70
41628;DHT22;27321;50.816;6.054;2022-12-07T01:59:29;6.60;80.70
41628;DHT22;27321;50.816;6.054;2022-12-07T02:02:34;6.60;80.50
41628;DHT22;27321;50.816;6.054;2022-12-07T02:05:40;6.70;80.90
41628;DHT22;27321;50.816;6.054;2022-12-07T02:08:42;6.60;80.20
41628;DHT22;27321;50.816;6.054;2022-12-07T02:11:43;6.70;80.60
41628;DHT22;27321;50.816;6.054;2022-12-07T02:14:44;6.70;80.10
41628;DHT22;27321;50.816;6.054;2022-12-07T02:18:07;6.70;80.10
41628;DHT22;27321;50.816;6.054;2022-12-07T02:21:20;6.60;80.90
41628;DHT22;27321;50.816;6.054;2022-12-07T02:28:55;6.60;81.10
41628;DHT22;27321;50.816;6.054;2022-12-07T02:32:14;6.70;80.90
41628;DHT22;27321;50.816;6.054;2022-12-07T02:35:30;6.70;80.70
41628;DHT22;27321;50.816;6.054;2022-12-07T02:38:36;6.70;80.80
41628;DHT22;27321;50.816;6.054;2022-12-07T02:41:46;6.70;80.60
41628;DHT22;27321;50.816;6.054;2022-12-07T02:44:48;6.70;80.60
41628;DHT22;27321;50.816;6.054;2022-12-07T02:47:51;6.70;81.10
41628;DHT22;27321;50.816;6.054;2022-12-07T02:50:54;6.70;81.00
41628;DHT22;27321;50.816;6.054;2022-12-07T02:53:55;6.70;80.70
41628;DHT22;27321;50.816;6.054;2022-12-07T02:56:59;6.70;80.70
41628;DHT22;27321;50.816;6.054;2022-12-07T03:00:24;6.70;80.50
41628;DHT22;27321;50.816;6.054;2022-12-07T03:03:25;6.70;80.50
41628;DHT22;27321;50.816;6.054;2022-12-07T03:06:40;6.70;80.70
41628;DHT22;27321;50.816;6.054;2022-12-07T03:10:03;6.60;80.80
41628;DHT22;27321;50.816;6.054;2022-12-07T03:16:53;6.60;80.80
41628;DHT22;27321;50.816;6.054;2022-12-07T03:19:59;6.50;81.10
41628;DHT22;27321;50.816;6.054;2022-12-07T03:23:06;6.60;81.20
41628;DHT22;27321;50.816;6.054;2022-12-07T03:26:12;6.60;81.00
41628;DHT22;27321;50.816;6.054;2022-12-07T03:29:30;6.60;80.70
41628;DHT22;27321;50.816;6.054;2022-12-07T03:32:38;6.60;80.90
41628;DHT22;27321;50.816;6.054;2022-12-07T03:36:21;6.60;80.40
41628;DHT22;27321;50.816;6.054;2022-12-07T03:39:46;6.70;80.70
41628;DHT22;27321;50.816;6.054;2022-12-07T03:42:54;6.60;80.90
41628;DHT22;27321;50.816;6.054;2022-12-07T03:46:27;6.60;80.70
41628;DHT22;27321;50.816;6.054;2022-12-07T03:49:53;6.60;81.00
41628;DHT22;27321;50.816;6.054;2022-12-07T03:53:20;6.70;80.50
41628;DHT22;27321;50.816;6.054;2022-12-07T03:56:24;6.70;80.80
41628;DHT22;27321;50.816;6.054;2022-12-07T03:59:26;6.70;80.70
41628;DHT22;27321;50.816;6.054;2022-12-07T04:02:29;6.70;80.10
41628;DHT22;27321;50.816;6.054;2022-12-07T04:05:30;6.80;80.60
41628;DHT22;27321;50.816;6.054;2022-12-07T04:08:31;6.70;80.40
41628;DHT22;27321;50.816;6.054;2022-12-07T04:11:33;6.70;80.70
41628;DHT22;27321;50.816;6.054;2022-12-07T04:14:34;6.60;80.30
41628;DHT22;27321;50.816;6.054;2022-12-07T04:17:36;6.70;80.90
41628;DHT22;27321;50.816;6.054;2022-12-07T04:20:37;6.70;80.50
41628;DHT22;27321;50.816;6.054;2022-12-07T04:23:38;6.70;80.70
41628;DHT22;27321;50.816;6.054;2022-12-07T04:26:39;6.70;79.90
41628;DHT22;27321;50.816;6.054;2022-12-07T04:29:40;6.70;80.50
41628;DHT22;27321;50.816;6.054;2022-12-07T04:32:41;6.70;80.60
41628;DHT22;27321;50.816;6.054;2022-12-07T04:35:42;6.70;80.20
41628;DHT22;27321;50.816;6.054;2022-12-07T04:38:43;6.70;80.40
41628;DHT22;27321;50.816;6.054;2022-12-07T04:41:44;6.60;80.50
41628;DHT22;27321;50.816;6.054;2022-12-07T04:44:45;6.60;80.60
41628;DHT22;27321;50.816;6.054;2022-12-07T04:47:46;6.60;80.90
41628;DHT22;27321;50.816;6.054;2022-12-07T04:50:48;6.70;80.10
41628;DHT22;27321;50.816;6.054;2022-12-07T04:53:53;6.70;80.30
41628;DHT22;27321;50.816;6.054;2022-12-07T04:56:54;6.60;80.60
41628;DHT22;27321;50.816;6.054;2022-12-07T04:59:55;6.60;80.50
41628;DHT22;27321;50.816;6.054;2022-12-07T05:02:56;6.70;80.50
41628;DHT22;27321;50.816;6.054;2022-12-07T05:05:57;6.60;80.30
41628;DHT22;27321;50.816;6.054;2022-12-07T05:08:58;6.60;80.00
41628;DHT22;27321;50.816;6.054;2022-12-07T05:11:59;6.60;80.10
41628;DHT22;27321;50.816;6.054;2022-12-07T05:15:00;6.60;80.40
41628;DHT22;27321;50.816;6.054;2022-12-07T05:18:01;6.70;80.40
41628;DHT22;27321;50.816;6.054;2022-12-07T05:21:02;6.70;80.30
41628;DHT22;27321;50.816;6.054;2022-12-07T05:24:04;6.70;80.20
41628;DHT22;27321;50.816;6.054;2022-12-07T05:27:06;6.70;79.70
41628;DHT22;27321;50.816;6.054;2022-12-07T05:30:07;6.70;79.70
41628;DHT22;27321;50.816;6.054;2022-12-07T05:33:09;6.70;79.80
41628;DHT22;27321;50.816;6.054;2022-12-07T05:36:10;6.70;79.90
41628;DHT22;27321;50.816;6.054;2022-12-07T05:39:11;6.70;79.40
41628;DHT22;27321;50.816;6.054;2022-12-07T05:42:12;6.70;79.40
41628;DHT22;27321;50.816;6.054;2022-12-07T05:45:13;6.60;79.80
41628;DHT22;27321;50.816;6.054;2022-12-07T05:48:14;6.60;79.80
41628;DHT22;27321;50.816;6.054;2022-12-07T05:51:15;6.60;79.90
41628;DHT22;27321;50.816;6.054;2022-12-07T05:54:16;6.60;79.80
41628;DHT22;27321;50.816;6.054;2022-12-07T05:57:17;6.60;79.80
41628;DHT22;27321;50.816;6.054;2022-12-07T06:00:19;6.60;79.80
41628;DHT22;27321;50.816;6.054;2022-12-07T06:03:20;6.60;79.10
41628;DHT22;27321;50.816;6.054;2022-12-07T06:06:21;6.60;79.80
41628;DHT22;27321;50.816;6.054;2022-12-07T06:09:26;6.60;79.60
41628;DHT22;27321;50.816;6.054;2022-12-07T06:12:28;6.50;79.40
41628;DHT22;27321;50.816;6.054;2022-12-07T06:15:38;6.50;79.60
41628;DHT22;27321;50.816;6.054;2022-12-07T06:18:40;6.60;79.50
41628;DHT22;27321;50.816;6.054;2022-12-07T06:21:41;6.60;79.60
41628;DHT22;27321;50.816;6.054;2022-12-07T06:24:43;6.60;79.70
41628;DHT22;27321;50.816;6.054;2022-12-07T06:27:44;6.60;79.90
41628;DHT22;27321;50.816;6.054;2022-12-07T06:30:45;6.70;79.20
41628;DHT22;27321;50.816;6.054;2022-12-07T06:33:46;6.60;79.80
41628;DHT22;27321;50.816;6.054;2022-12-07T06:38:11;6.60;80.00
41628;DHT22;27321;50.816;6.054;2022-12-07T06:41:39;6.60;79.70
41628;DHT22;27321;50.816;6.054;2022-12-07T06:48:44;6.60;79.80
41628;DHT22;27321;50.816;6.054;2022-12-07T06:52:29;6.70;79.80
41628;DHT22;27321;50.816;6.054;2022-12-07T06:56:12;6.60;79.70
41628;DHT22;27321;50.816;6.054;2022-12-07T07:00:04;6.60;80.00
41628;DHT22;27321;50.816;6.054;2022-12-07T07:04:15;6.50;79.40
41628;DHT22;27321;50.816;6.054;2022-12-07T07:11:47;6.50;79.80
41628;DHT22;27321;50.816;6.054;2022-12-07T07:25:23;6.50;80.50
41628;DHT22;27321;50.816;6.054;2022-12-07T07:28:50;6.50;80.10
41628;DHT22;27321;50.816;6.054;2022-12-07T07:31:51;6.50;79.90
41628;DHT22;27321;50.816;6.054;2022-12-07T07:34:53;6.50;80.50
41628;DHT22;27321;50.816;6.054;2022-12-07T07:37:54;6.40;80.80
41628;DHT22;27321;50.816;6.054;2022-12-07T07:40:55;6.40;80.30
41628;DHT22;27321;50.816;6.054;2022-12-07T07:43:56;6.50;80.90
41628;DHT22;27321;50.816;6.054;2022-12-07T07:47:11;6.40;80.60
41628;DHT22;27321;50.816;6.054;2022-12-07T07:50:25;6.40;80.50
41628;DHT22;27321;50.816;6.054;2022-12-07T07:54:09;6.50;80.60
41628;DHT22;27321;50.816;6.054;2022-12-07T08:00:45;6.50;79.60
41628;DHT22;27321;50.816;6.054;2022-12-07T08:03:57;6.50;79.80
41628;DHT22;27321;50.816;6.054;2022-12-07T08:07:18;6.50;79.50
41628;DHT22;27321;50.816;6.054;2022-12-07T08:10:22;6.60;79.60
41628;DHT22;27321;50.816;6.054;2022-12-07T08:13:23;6.60;79.40
41628;DHT22;27321;50.816;6.054;2022-12-07T08:16:24;6.70;79.40
41628;DHT22;27321;50.816;6.054;2022-12-07T08:19:28;6.70;78.60
41628;DHT22;27321;50.816;6.054;2022-12-07T08:22:29;6.70;78.40
41628;DHT22;27321;50.816;6.054;2022-12-07T08:25:31;6.80;78.70
41628;DHT22;27321;50.816;6.054;2022-12-07T08:28:32;6.70;77.80
41628;DHT22;27321;50.816;6.054;2022-12-07T08:31:33;6.70;78.40
41628;DHT22;27321;50.816;6.054;2022-12-07T08:34:35;6.70;77.90
41628;DHT22;27321;50.816;6.054;2022-12-07T08:37:37;6.60;77.00
41628;DHT22;27321;50.816;6.054;2022-12-07T08:40:39;6.50;76.90
41628;DHT22;27321;50.816;6.054;2022-12-07T08:43:41;6.50;78.00
41628;DHT22;27321;50.816;6.054;2022-12-07T08:46:47;6.40;77.60
41628;DHT22;27321;50.816;6.054;2022-12-07T08:49:52;6.40;78.20
41628;DHT22;27321;50.816;6.054;2022-12-07T08:52:56;6.30;78.10
41628;DHT22;27321;50.816;6.054;2022-12-07T08:56:01;6.30;78.70
41628;DHT22;27321;50.816;6.054;2022-12-07T08:59:04;6.30;78.90
41628;DHT22;27321;50.816;6.054;2022-12-07T09:02:06;6.30;78.80
41628;DHT22;27321;50.816;6.054;2022-12-07T09:05:07;6.30;78.80
41628;DHT22;27321;50.816;6.054;2022-12-07T09:08:09;6.30;79.20
41628;DHT22;27321;50.816;6.054;2022-12-07T09:11:10;6.20;79.30
41628;DHT22;27321;50.816;6.054;2022-12-07T09:14:11;6.20;79.60
41628;DHT22;27321;50.816;6.054;2022-12-07T09:17:13;6.30;79.90
41628;DHT22;27321;50.816;6.054;2022-12-07T09:20:23;6.30;79.80
41628;DHT22;27321;50.816;6.054;2022-12-07T09:23:34;6.40;80.10
41628;DHT22;27321;50.816;6.054;2022-12-07T09:26:37;6.50;79.90
41628;DHT22;27321;50.816;6.054;2022-12-07T09:29:40;6.60;79.80
41628;DHT22;27321;50.816;6.054;2022-12-07T09:32:45;6.60;79.20
41628;DHT22;27321;50.816;6.054;2022-12-07T09:35:47;6.60;79.50
41628;DHT22;27321;50.816;6.054;2022-12-07T09:38:49;6.50;79.90
41628;DHT22;27321;50.816;6.054;2022-12-07T09:41:50;6.60;79.90
41628;DHT22;27321;50.816;6.054;2022-12-07T09:44:51;6.60;79.80
41628;DHT22;27321;50.816;6.054;2022-12-07T09:47:52;6.70;79.30
41628;DHT22;27321;50.816;6.054;2022-12-07T09:50:58;6.60;79.40
41628;DHT22;27321;50.816;6.054;2022-12-07T09:54:01;6.60;79.70
41628;DHT22;27321;50.816;6.054;2022-12-07T09:57:05;6.60;79.30
41628;DHT22;27321;50.816;6.054;2022-12-07T10:00:14;6.70;79.30
41628;DHT22;27321;50.816;6.054;2022-12-07T10:03:20;6.70;78.60
41628;DHT22;27321;50.816;6.054;2022-12-07T10:06:31;6.70;78.90
41628;DHT22;27321;50.816;6.054;2022-12-07T10:09:32;6.70;78.40
41628;DHT22;27321;50.816;6.054;2022-12-07T10:12:57;6.70;79.30
41628;DHT22;27321;50.816;6.054;2022-12-07T10:16:05;6.80;79.40
41628;DHT22;27321;50.816;6.054;2022-12-07T10:19:27;6.80;79.00
41628;DHT22;27321;50.816;6.054;2022-12-07T10:22:33;6.80;79.10
41628;DHT22;27321;50.816;6.054;2022-12-07T10:25:48;6.90;79.30
41628;DHT22;27321;50.816;6.054;2022-12-07T10:28:53;7.10;79.50
41628;DHT22;27321;50.816;6.054;2022-12-07T10:35:30;7.20;78.30
41628;DHT22;27321;50.816;6.054;2022-12-07T10:38:33;7.10;78.90
41628;DHT22;27321;50.816;6.054;2022-12-07T10:41:58;7.10;78.60
41628;DHT22;27321;50.816;6.054;2022-12-07T10:45:13;6.90;78.50
41628;DHT22;27321;50.816;6.054;2022-12-07T10:48:49;6.80;78.60
41628;DHT22;27321;50.816;6.054;2022-12-07T10:52:14;6.70;79.10
41628;DHT22;27321;50.816;6.054;2022-12-07T10:56:15;6.60;79.10
41628;DHT22;27321;50.816;6.054;2022-12-07T11:06:39;6.90;79.00
41628;DHT22;27321;50.816;6.054;2022-12-07T11:10:57;6.90;79.40
41628;DHT22;27321;50.816;6.054;2022-12-07T11:17:48;7.00;79.00
41628;DHT22;27321;50.816;6.054;2022-12-07T11:21:11;7.00;79.40
41628;DHT22;27321;50.816;6.054;2022-12-07T11:39:02;7.00;78.20
41628;DHT22;27321;50.816;6.054;2022-12-07T11:42:22;7.00;78.50
41628;DHT22;27321;50.816;6.054;2022-12-07T11:45:29;6.90;78.30
41628;DHT22;27321;50.816;6.054;2022-12-07T11:48:38;7.00;78.50
41628;DHT22;27321;50.816;6.054;2022-12-07T11:51:43;7.00;77.90
41628;DHT22;27321;50.816;6.054;2022-12-07T11:54:45;7.00;78.50
41628;DHT22;27321;50.816;6.054;2022-12-07T11:57:53;7.20;78.40
41628;DHT22;27321;50.816;6.054;2022-12-07T12:01:29;7.20;78.20
41628;DHT22;27321;50.816;6.054;2022-12-07T12:05:19;7.30;78.10
41628;DHT22;27321;50.816;6.054;2022-12-07T12:08:29;7.30;78.00
41628;DHT22;27321;50.816;6.054;2022-12-07T12:19:19;7.20;77.70
41628;DHT22;27321;50.816;6.054;2022-12-07T12:22:35;7.20;77.30
41628;DHT22;27321;50.816;6.054;2022-12-07T12:25:50;7.30;77.40
41628;DHT22;27321;50.816;6.054;2022-12-07T12:29:00;7.30;77.60
41628;DHT22;27321;50.816;6.054;2022-12-07T12:32:18;7.30;77.30
41628;DHT22;27321;50.816;6.054;2022-12-07T12:35:36;7.40;77.20
41628;DHT22;27321;50.816;6.054;2022-12-07T12:42:20;7.40;76.80
41628;DHT22;27321;50.816;6.054;2022-12-07T12:45:26;7.40;76.30
41628;DHT22;27321;50.816;6.054;2022-12-07T12:48:40;7.40;76.80
41628;DHT22;27321;50.816;6.054;2022-12-07T12:51:45;7.50;76.70
41628;DHT22;27321;50.816;6.054;2022-12-07T13:01:37;7.80;76.80
41628;DHT22;27321;50.816;6.054;2022-12-07T13:05:18;7.80;76.50
41628;DHT22;27321;50.816;6.054;2022-12-07T13:08:21;7.80;76.40
41628;DHT22;27321;50.816;6.054;2022-12-07T13:14:56;7.80;76.00
41628;DHT22;27321;50.816;6.054;2022-12-07T13:18:02;7.80;76.60
41628;DHT22;27321;50.816;6.054;2022-12-07T13:24:10;7.80;76.30
41628;DHT22;27321;50.816;6.054;2022-12-07T13:27:13;7.80;75.30
41628;DHT22;27321;50.816;6.054;2022-12-07T13:30:17;7.70;75.80
41628;DHT22;27321;50.816;6.054;2022-12-07T13:33:20;7.70;76.20
41628;DHT22;27321;50.816;6.054;2022-12-07T13:36:32;7.70;76.30
41628;DHT22;27321;50.816;6.054;2022-12-07T13:39:51;7.70;76.40
41628;DHT22;27321;50.816;6.054;2022-12-07T13:43:00;7.70;76.40
41628;DHT22;27321;50.816;6.054;2022-12-07T13:46:08;7.60;76.10
41628;DHT22;27321;50.816;6.054;2022-12-07T13:49:19;7.70;76.50
41628;DHT22;27321;50.816;6.054;2022-12-07T13:52:25;7.60;75.90
41628;DHT22;27321;50.816;6.054;2022-12-07T13:55:29;7.60;76.40
41628;DHT22;27321;50.816;6.054;2022-12-07T13:58:37;7.60;76.00
41628;DHT22;27321;50.816;6.054;2022-12-07T14:01:38;7.70;76.20
41628;DHT22;27321;50.816;6.054;2022-12-07T14:04:39;7.70;76.20
41628;DHT22;27321;50.816;6.054;2022-12-07T14:07:55;7.70;76.40
41628;DHT22;27321;50.816;6.054;2022-12-07T14:11:21;7.70;76.10
41628;DHT22;27321;50.816;6.054;2022-12-07T14:14:25;7.70;75.90
41628;DHT22;27321;50.816;6.054;2022-12-07T14:17:28;7.60;76.40
41628;DHT22;27321;50.816;6.054;2022-12-07T14:20:40;7.60;76.20
41628;DHT22;27321;50.816;6.054;2022-12-07T14:23:42;7.60;76.30
41628;DHT22;27321;50.816;6.054;2022-12-07T14:26:45;7.60;76.50
41628;DHT22;27321;50.816;6.054;2022-12-07T14:29:50;7.60;76.10
41628;DHT22;27321;50.816;6.054;2022-12-07T14:32:58;7.60;76.30
41628;DHT22;27321;50.816;6.054;2022-12-07T14:36:01;7.60;76.80
41628;DHT22;27321;50.816;6.054;2022-12-07T14:39:02;7.60;76.20
41628;DHT22;27321;50.816;6.054;2022-12-07T14:42:04;7.70;76.80
41628;DHT22;27321;50.816;6.054;2022-12-07T14:45:10;7.70;76.50
41628;DHT22;27321;50.816;6.054;2022-12-07T14:48:15;7.70;76.50
41628;DHT22;27321;50.816;6.054;2022-12-07T14:51:17;7.70;76.40
41628;DHT22;27321;50.816;6.054;2022-12-07T14:54:19;7.80;76.00
41628;DHT22;27321;50.816;6.054;2022-12-07T14:57:22;7.70;76.00
41628;DHT22;27321;50.816;6.054;2022-12-07T15:00:26;7.70;75.90
41628;DHT22;27321;50.816;6.054;2022-12-07T15:03:27;7.60;76.20
41628;DHT22;27321;50.816;6.054;2022-12-07T15:06:29;7.60;76.30
41628;DHT22;27321;50.816;6.054;2022-12-07T15:09:30;7.60;76.50
41628;DHT22;27321;50.816;6.054;2022-12-07T15:12:31;7.60;76.50
41628;DHT22;27321;50.816;6.054;2022-12-07T15:15:31;7.70;76.80
41628;DHT22;27321;50.816;6.054;2022-12-07T15:18:33;7.70;76.60
41628;DHT22;27321;50.816;6.054;2022-12-07T15:21:34;7.70;76.80
41628;DHT22;27321;50.816;6.054;2022-12-07T15:24:35;7.70;76.70
41628;DHT22;27321;50.816;6.054;2022-12-07T15:27:36;7.70;76.70
41628;DHT22;27321;50.816;6.054;2022-12-07T15:30:38;7.70;76.80
41628;DHT22;27321;50.816;6.054;2022-12-07T15:33:39;7.60;76.20
41628;DHT22;27321;50.816;6.054;2022-12-07T15:36:40;7.50;76.20
41628;DHT22;27321;50.816;6.054;2022-12-07T15:39:41;7.40;76.60
41628;DHT22;27321;50.816;6.054;2022-12-07T15:42:42;7.30;76.30
41628;DHT22;27321;50.816;6.054;2022-12-07T15:45:50;7.20;76.70
41628;DHT22;27321;50.816;6.054;2022-12-07T15:48:53;7.20;76.10
41628;DHT22;27321;50.816;6.054;2022-12-07T15:52:04;7.20;76.20
41628;DHT22;27321;50.816;6.054;2022-12-07T15:55:10;7.20;76.10
41628;DHT22;27321;50.816;6.054;2022-12-07T15:58:11;7.10;75.70
41628;DHT22;27321;50.816;6.054;2022-12-07T16:01:19;7.10;76.00
41628;DHT22;27321;50.816;6.054;2022-12-07T16:04:22;7.10;75.70
41628;DHT22;27321;50.816;6.054;2022-12-07T16:07:23;7.10;75.70
41628;DHT22;27321;50.816;6.054;2022-12-07T16:10:24;7.10;75.60
41628;DHT22;27321;50.816;6.054;2022-12-07T16:13:25;7.10;75.60
41628;DHT22;27321;50.816;6.054;2022-12-07T16:16:26;7.10;75.60
41628;DHT22;27321;50.816;6.054;2022-12-07T16:19:30;7.20;76.10
41628;DHT22;27321;50.816;6.054;2022-12-07T16:22:31;7.20;75.90
41628;DHT22;27321;50.816;6.054;2022-12-07T16:25:33;7.20;75.80
41628;DHT22;27321;50.816;6.054;2022-12-07T16:28:34;7.20;76.20
41628;DHT22;27321;50.816;6.054;2022-12-07T16:31:35;7.20;76.40
41628;DHT22;27321;50.816;6.054;2022-12-07T16:34:36;7.20;76.10
41628;DHT22;27321;50.816;6.054;2022-12-07T16:37:38;7.10;76.70
41628;DHT22;27321;50.816;6.054;2022-12-07T16:40:39;7.20;76.90
41628;DHT22;27321;50.816;6.054;2022-12-07T16:43:40;7.20;76.80
41628;DHT22;27321;50.816;6.054;2022-12-07T16:46:42;7.20;76.50
41628;DHT22;27321;50.816;6.054;2022-12-07T16:49:43;7.20;76.20
41628;DHT22;27321;50.816;6.054;2022-12-07T16:52:44;7.10;76.80
41628;DHT22;27321;50.816;6.054;2022-12-07T16:55:46;7.10;76.70
41628;DHT22;27321;50.816;6.054;2022-12-07T16:58:47;7.00;76.60
41628;DHT22;27321;50.816;6.054;2022-12-07T17:01:50;7.00;77.20
41628;DHT22;27321;50.816;6.054;2022-12-07T17:04:52;6.90;77.50
41628;DHT22;27321;50.816;6.054;2022-12-07T17:07:54;6.90;77.30
41628;DHT22;27321;50.816;6.054;2022-12-07T17:10:56;7.00;77.00
41628;DHT22;27321;50.816;6.054;2022-12-07T17:13:58;7.00;76.90
41628;DHT22;27321;50.816;6.054;2022-12-07T17:17:24;6.90;76.70
41628;DHT22;27321;50.816;6.054;2022-12-07T17:20:39;6.90;77.70
41628;DHT22;27321;50.816;6.054;2022-12-07T17:23:49;6.90;77.10
41628;DHT22;27321;50.816;6.054;2022-12-07T17:26:52;7.00;77.40
41628;DHT22;27321;50.816;6.054;2022-12-07T17:29:54;7.00;76.70
41628;DHT22;27321;50.816;6.054;2022-12-07T17:32:55;7.00;77.10
41628;DHT22;27321;50.816;6.054;2022-12-07T17:35:56;7.00;77.00
41628;DHT22;27321;50.816;6.054;2022-12-07T17:39:00;7.00;77.50
41628;DHT22;27321;50.816;6.054;2022-12-07T17:42:03;6.90;77.40
41628;DHT22;27321;50.816;6.054;2022-12-07T17:45:23;7.00;77.40
41628;DHT22;27321;50.816;6.054;2022-12-07T17:48:24;6.90;77.70
41628;DHT22;27321;50.816;6.054;2022-12-07T17:51:25;6.90;77.20
41628;DHT22;27321;50.816;6.054;2022-12-07T17:54:45;6.90;78.10
41628;DHT22;27321;50.816;6.054;2022-12-07T17:57:46;6.90;78.20
41628;DHT22;27321;50.816;6.054;2022-12-07T18:00:47;6.90;77.30
41628;DHT22;27321;50.816;6.054;2022-12-07T18:03:48;6.90;77.20
41628;DHT22;27321;50.816;6.054;2022-12-07T18:06:49;6.90;77.10
41628;DHT22;27321;50.816;6.054;2022-12-07T18:09:50;7.00;77.60
41628;DHT22;27321;50.816;6.054;2022-12-07T18:12:51;7.00;76.90
41628;DHT22;27321;50.816;6.054;2022-12-07T18:16:15;7.00;76.70
41628;DHT22;27321;50.816;6.054;2022-12-07T18:19:17;7.00;76.80
41628;DHT22;27321;50.816;6.054;2022-12-07T18:22:18;6.90;77.10
41628;DHT22;27321;50.816;6.054;2022-12-07T18:25:19;6.80;77.10
41628;DHT22;27321;50.816;6.054;2022-12-07T18:28:20;6.70;77.00
41628;DHT22;27321;50.816;6.054;2022-12-07T18:31:21;6.60;77.20
41628;DHT22;27321;50.816;6.054;2022-12-07T18:34:23;6.60;77.50
41628;DHT22;27321;50.816;6.054;2022-12-07T18:37:24;6.60;77.30
41628;DHT22;27321;50.816;6.054;2022-12-07T18:40:27;6.70;76.90
41628;DHT22;27321;50.816;6.054;2022-12-07T18:43:28;6.60;76.80
41628;DHT22;27321;50.816;6.054;2022-12-07T18:46:30;6.70;77.30
41628;DHT22;27321;50.816;6.054;2022-12-07T18:49:32;6.70;77.00
41628;DHT22;27321;50.816;6.054;2022-12-07T18:52:33;6.70;76.50
41628;DHT22;27321;50.816;6.054;2022-12-07T18:55:34;6.70;77.00
41628;DHT22;27321;50.816;6.054;2022-12-07T18:58:35;6.70;76.90
41628;DHT22;27321;50.816;6.054;2022-12-07T19:01:37;6.60;77.00
41628;DHT22;27321;50.816;6.054;2022-12-07T19:04:38;6.60;77.20
41628;DHT22;27321;50.816;6.054;2022-12-07T19:07:39;6.60;76.60
41628;DHT22;27321;50.816;6.054;2022-12-07T19:10:40;6.60;77.10
41628;DHT22;27321;50.816;6.054;2022-12-07T19:13:41;6.70;76.80
41628;DHT22;27321;50.816;6.054;2022-12-07T19:16:43;6.70;76.90
41628;DHT22;27321;50.816;6.054;2022-12-07T19:19:46;6.70;76.80
41628;DHT22;27321;50.816;6.054;2022-12-07T19:22:47;6.70;77.00
41628;DHT22;27321;50.816;6.054;2022-12-07T19:25:48;6.80;76.60
41628;DHT22;27321;50.816;6.054;2022-12-07T19:28:49;6.70;76.50
41628;DHT22;27321;50.816;6.054;2022-12-07T19:31:51;6.70;76.70
41628;DHT22;27321;50.816;6.054;2022-12-07T19:34:54;6.70;76.40
41628;DHT22;27321;50.816;6.054;2022-12-07T19:37:56;6.60;76.70
41628;DHT22;27321;50.816;6.054;2022-12-07T19:41:07;6.60;77.00
41628;DHT22;27321;50.816;6.054;2022-12-07T19:44:32;6.60;76.80
41628;DHT22;27321;50.816;6.054;2022-12-07T19:47:34;6.60;77.20
41628;DHT22;27321;50.816;6.054;2022-12-07T19:50:35;6.60;77.10
41628;DHT22;27321;50.816;6.054;2022-12-07T19:53:36;6.60;77.10
41628;DHT22;27321;50.816;6.054;2022-12-07T19:56:37;6.70;77.10
41628;DHT22;27321;50.816;6.054;2022-12-07T19:59:38;6.60;77.20
41628;DHT22;27321;50.816;6.054;2022-12-07T20:02:40;6.60;77.40
41628;DHT22;27321;50.816;6.054;2022-12-07T20:05:41;6.60;77.30
41628;DHT22;27321;50.816;6.054;2022-12-07T20:08:43;6.60;77.20
41628;DHT22;27321;50.816;6.054;2022-12-07T20:11:44;6.70;76.90
41628;DHT22;27321;50.816;6.054;2022-12-07T20:15:04;6.70;77.10
41628;DHT22;27321;50.816;6.054;2022-12-07T20:18:05;6.60;77.10
41628;DHT22;27321;50.816;6.054;2022-12-07T20:21:06;6.60;77.70
41628;DHT22;27321;50.816;6.054;2022-12-07T20:24:11;6.60;78.10
41628;DHT22;27321;50.816;6.054;2022-12-07T20:27:20;6.60;77.60
41628;DHT22;27321;50.816;6.054;2022-12-07T20:30:21;6.70;77.20
41628;DHT22;27321;50.816;6.054;2022-12-07T20:33:22;6.70;77.40
41628;DHT22;27321;50.816;6.054;2022-12-07T20:36:23;6.70;77.30
41628;DHT22;27321;50.816;6.054;2022-12-07T20:39:24;6.70;76.90
41628;DHT22;27321;50.816;6.054;2022-12-07T20:42:25;6.70;77.20
41628;DHT22;27321;50.816;6.054;2022-12-07T20:45:48;6.70;77.40
41628;DHT22;27321;50.816;6.054;2022-12-07T20:48:50;6.80;77.40
41628;DHT22;27321;50.816;6.054;2022-12-07T20:51:51;6.70;77.00
41628;DHT22;27321;50.816;6.054;2022-12-07T20:54:52;6.70;76.80
41628;DHT22;27321;50.816;6.054;2022-12-07T20:57:53;6.70;77.30
41628;DHT22;27321;50.816;6.054;2022-12-07T21:01:00;6.60;77.40
41628;DHT22;27321;50.816;6.054;2022-12-07T21:04:02;6.60;77.30
41628;DHT22;27321;50.816;6.054;2022-12-07T21:07:03;6.60;77.30
41628;DHT22;27321;50.816;6.054;2022-12-07T21:10:04;6.50;77.60
41628;DHT22;27321;50.816;6.054;2022-12-07T21:13:07;6.60;77.70
41628;DHT22;27321;50.816;6.054;2022-12-07T21:16:13;6.60;77.00
41628;DHT22;27321;50.816;6.054;2022-12-07T21:19:16;6.50;77.40